Time;durP1;ratioP1;P1;durP2;ratioP2;P2;SDS_P1;SDS_P2;PMS_P1;PMS_P2;Temp;Humidity;BMP_temperature;BMP_pressure;BME280_temperature;BME280_humidity;BME280_pressure;Samples;Min_cycle;Max_cycle;Signal;HPM_P1;HPM_P2
2021/04/26 00:01:23;;;;;;;5.10;2.90;;;;;;;8.24;41.68;97522.13;5010726;28;20029;-76
2021/04/26 00:03:48;;;;;;;4.05;2.10;;;;;;;8.38;41.21;97525.31;5011282;28;20040;-77
2021/04/26 00:06:14;;;;;;;4.55;1.80;;;;;;;8.70;41.02;97527.66;5020222;28;20030;-77
2021/04/26 00:08:39;;;;;;;3.00;2.05;;;;;;;8.71;40.62;97529.25;5043931;28;20026;-77
2021/04/26 00:11:05;;;;;;;3.50;1.70;;;;;;;8.67;40.97;97520.34;5026594;28;20060;-76
2021/04/26 00:13:30;;;;;;;5.03;1.98;;;;;;;8.36;41.56;97522.16;5027098;28;20022;-77
2021/04/26 00:15:56;;;;;;;3.00;1.73;;;;;;;8.70;40.85;97525.06;5010598;28;20029;-77
2021/04/26 00:18:23;;;;;;;5.35;2.53;;;;;;;8.71;40.56;97521.47;5010829;28;20029;-77
2021/04/26 00:20:49;;;;;;;4.18;1.98;;;;;;;8.46;41.37;97511.25;5026835;28;20385;-77
2021/04/26 00:23:14;;;;;;;4.35;1.55;;;;;;;8.57;41.62;97518.28;5027349;28;20025;-76
2021/04/26 00:25:40;;;;;;;4.72;2.22;;;;;;;8.20;41.96;97507.22;5025475;28;20030;-77
2021/04/26 00:28:05;;;;;;;4.65;1.92;;;;;;;8.33;41.34;97507.03;5010813;28;20090;-77
2021/04/26 00:30:31;;;;;;;4.25;1.80;;;;;;;8.13;41.51;97498.72;5026940;28;20641;-76
2021/04/26 00:32:56;;;;;;;5.50;1.98;;;;;;;8.13;41.82;97496.91;5027810;28;20037;-77
2021/04/26 00:35:22;;;;;;;5.43;2.10;;;;;;;7.93;42.62;97489.41;5027860;28;20044;-76
2021/04/26 00:37:49;;;;;;;4.75;1.60;;;;;;;7.84;42.56;97485.53;5030233;28;20486;-77
2021/04/26 00:40:15;;;;;;;5.10;2.33;;;;;;;7.84;42.89;97482.94;5011249;28;20021;-76
2021/04/26 00:42:41;;;;;;;3.10;1.88;;;;;;;7.76;42.71;97476.28;5030747;28;20583;-76
2021/04/26 00:45:10;;;;;;;5.25;1.95;;;;;;;7.57;42.83;97469.50;5014482;28;20044;-76
2021/04/26 00:47:36;;;;;;;4.00;1.77;;;;;;;7.61;43.19;97455.91;5030070;28;20079;-77
2021/04/26 00:50:24;;;;;;;3.35;2.10;;;;;;;7.67;42.49;97467.19;5030264;28;20033;-77
2021/04/26 00:52:50;;;;;;;5.10;2.20;;;;;;;7.54;43.53;97467.34;5031536;28;20049;-77
2021/04/26 00:55:18;;;;;;;4.18;1.95;;;;;;;7.58;42.99;97466.69;5031859;28;20037;-77
2021/04/26 00:57:43;;;;;;;6.75;1.92;;;;;;;7.53;43.70;97463.97;5023581;28;20049;-77
2021/04/26 01:00:10;;;;;;;4.07;2.00;;;;;;;7.37;43.40;97460.16;5027497;28;20401;-77
2021/04/26 01:02:36;;;;;;;5.72;2.03;;;;;;;7.29;43.81;97456.06;5028317;28;20026;-76
2021/04/26 01:05:08;;;;;;;4.78;2.00;;;;;;;7.23;44.08;97459.53;5029069;28;20061;-76
2021/04/26 01:07:35;;;;;;;6.22;2.45;;;;;;;6.91;44.67;97449.28;5027981;28;20036;-75
2021/04/26 01:10:05;;;;;;;4.75;2.67;;;;;;;6.83;44.94;97454.72;5045400;28;20036;-75
2021/04/26 01:13:05;;;;;;;3.08;1.65;;;;;;;6.77;44.98;97454.78;5047079;28;20021;-76
2021/04/26 01:15:35;;;;;;;4.20;1.80;;;;;;;6.83;44.80;97438.41;5006152;28;20559;-75
2021/04/26 01:18:10;;;;;;;3.15;1.98;;;;;;;6.79;44.97;97438.03;5046448;28;20357;-77
2021/04/26 01:20:38;;;;;;;4.60;2.03;;;;;;;6.73;45.22;97433.69;5046419;28;20674;-76
2021/04/26 01:23:41;;;;;;;4.07;2.25;;;;;;;6.51;45.21;97428.94;5031569;28;20049;-75
2021/04/26 01:26:09;;;;;;;5.55;2.10;;;;;;;6.86;44.69;97428.41;5026404;28;20033;-76
2021/04/26 01:28:46;;;;;;;5.35;1.95;;;;;;;6.45;45.44;97424.59;5046308;28;20124;-76
2021/04/26 01:31:16;;;;;;;4.72;1.85;;;;;;;6.71;44.78;97415.81;5043644;28;20080;-77
2021/04/26 01:33:53;;;;;;;5.13;2.45;;;;;;;6.87;44.03;97419.66;5029741;28;20102;-77
2021/04/26 01:36:24;;;;;;;3.28;1.55;;;;;;;6.99;43.89;97424.91;5011757;28;20524;-77
2021/04/26 01:38:50;;;;;;;7.05;2.40;;;;;;;6.89;44.04;97409.09;5029668;28;20064;-77
2021/04/26 01:41:16;;;;;;;4.07;1.67;;;;;;;6.80;44.89;97408.53;5029417;28;20508;-77
2021/04/26 01:43:45;;;;;;;4.50;1.80;;;;;;;6.59;45.10;97404.56;5029478;28;20072;-75
2021/04/26 01:46:12;;;;;;;4.88;1.90;;;;;;;6.54;44.96;97407.78;5012907;28;20116;-76
2021/04/26 01:48:39;;;;;;;7.10;2.25;;;;;;;6.62;45.48;97405.94;5046820;28;20037;-76
2021/04/26 01:51:05;;;;;;;5.70;1.90;;;;;;;6.81;44.88;97410.16;5013084;28;20036;-76
2021/04/26 01:53:31;;;;;;;4.25;2.08;;;;;;;6.50;45.67;97393.69;5046938;28;20112;-77
2021/04/26 01:55:58;;;;;;;3.20;1.70;;;;;;;6.26;46.27;97397.88;5028439;28;20057;-76
2021/04/26 01:58:24;;;;;;;5.65;1.67;;;;;;;6.03;47.06;97382.91;5030410;28;20096;-77
2021/04/26 02:00:50;;;;;;;4.00;2.33;;;;;;;6.24;46.25;97388.72;4997322;28;20448;-77
2021/04/26 02:03:22;;;;;;;2.63;2.15;;;;;;;6.09;46.60;97378.72;5030328;28;20037;-77
2021/04/26 02:05:49;;;;;;;3.92;2.00;;;;;;;6.32;46.25;97378.13;5013004;28;20033;-76
2021/04/26 02:08:15;;;;;;;5.32;2.13;;;;;;;6.33;45.88;97380.50;5030134;28;20403;-76
2021/04/26 02:10:40;;;;;;;4.78;1.77;;;;;;;6.51;45.87;97377.19;5029905;28;20117;-77
2021/04/26 02:13:06;;;;;;;4.20;2.40;;;;;;;6.14;46.29;97365.97;5030108;28;20033;-75
2021/04/26 02:15:32;;;;;;;6.32;2.17;;;;;;;6.37;46.36;97367.94;5030114;28;20039;-76
2021/04/26 02:17:58;;;;;;;6.43;2.10;;;;;;;6.35;46.11;97375.13;4997361;28;20496;-77
2021/04/26 02:20:24;;;;;;;2.78;1.75;;;;;;;6.19;46.29;97369.50;5046277;28;20033;-76
2021/04/26 02:22:51;;;;;;;5.32;2.13;;;;;;;5.98;46.83;97368.06;5011622;28;20038;-75
2021/04/26 02:25:17;;;;;;;4.38;2.13;;;;;;;6.23;46.54;97366.47;5011503;28;20079;-77
2021/04/26 02:27:42;;;;;;;4.15;1.70;;;;;;;6.27;46.37;97367.63;5029950;28;20021;-76
2021/04/26 02:30:09;;;;;;;4.53;2.42;;;;;;;6.29;46.25;97366.44;5045904;28;20424;-77
2021/04/26 02:32:58;;;;;;;3.15;1.90;;;;;;;5.93;46.81;97367.06;5030794;28;20034;-76
2021/04/26 02:35:30;;;;;;;2.28;2.00;;;;;;;6.34;45.49;97358.84;5012876;28;20030;-76
2021/04/26 02:37:58;;;;;;;3.85;1.95;;;;;;;6.23;46.22;97375.03;5029566;28;20457;-76
2021/04/26 02:40:24;;;;;;;3.83;2.20;;;;;;;6.35;46.01;97364.78;5009970;28;20413;-77
2021/04/26 02:42:51;;;;;;;3.47;1.92;;;;;;;6.32;46.10;97370.38;5013989;28;20026;-76
2021/04/26 02:45:20;;;;;;;5.00;2.30;;;;;;;5.90;46.42;97364.91;5029630;28;20035;-76
2021/04/26 02:47:46;;;;;;;9.65;2.10;;;;;;;6.03;46.62;97362.25;5018521;28;20033;-77
2021/04/26 02:50:17;;;;;;;5.72;2.40;;;;;;;5.88;46.37;97364.31;5012512;28;20740;-77
2021/04/26 02:52:45;;;;;;;6.63;2.45;;;;;;;6.03;46.45;97357.06;5029403;28;20065;-76
2021/04/26 02:55:12;;;;;;;4.05;1.73;;;;;;;6.08;46.68;97367.56;5013765;28;20068;-76
2021/04/26 02:57:38;;;;;;;8.63;2.33;;;;;;;6.25;46.47;97364.47;5028684;28;20041;-77
2021/04/26 03:00:06;;;;;;;3.90;2.22;;;;;;;6.35;45.53;97350.06;5028390;28;20041;-76
2021/04/26 03:02:31;;;;;;;3.78;1.92;;;;;;;6.41;46.46;97352.78;5012675;28;20030;-77
2021/04/26 03:04:58;;;;;;;4.72;2.10;;;;;;;6.33;46.32;97343.53;5030204;28;20103;-77
2021/04/26 03:07:23;;;;;;;5.18;2.70;;;;;;;6.33;45.91;97348.69;5045397;28;20041;-77
2021/04/26 03:09:49;;;;;;;4.72;2.60;;;;;;;6.24;46.16;97352.53;5011366;28;20021;-76
2021/04/26 03:12:15;;;;;;;5.75;2.40;;;;;;;6.23;46.49;97356.16;5045827;28;20120;-77
2021/04/26 03:14:41;;;;;;;3.47;1.92;;;;;;;6.12;46.10;97371.34;5028737;28;20022;-77
2021/04/26 03:17:08;;;;;;;3.53;1.88;;;;;;;6.06;46.72;97356.66;5028704;28;20029;-77
2021/04/26 03:19:33;;;;;;;4.13;2.10;;;;;;;6.05;46.20;97349.09;5028741;28;20071;-77
2021/04/26 03:21:59;;;;;;;4.97;1.92;;;;;;;5.88;47.23;97359.13;5045464;28;20061;-77
2021/04/26 03:24:24;;;;;;;5.20;2.92;;;;;;;5.92;47.46;97355.16;5012452;28;20151;-76
2021/04/26 03:26:51;;;;;;;4.20;2.10;;;;;;;5.85;47.32;97359.56;5028623;28;20033;-77
2021/04/26 03:29:20;;;;;;;3.30;1.92;;;;;;;5.75;46.88;97350.47;5011626;28;20068;-77
2021/04/26 03:31:49;;;;;;;4.70;1.90;;;;;;;5.57;47.58;97356.38;5030564;28;20388;-77
2021/04/26 03:34:16;;;;;;;2.55;2.03;;;;;;;5.71;47.25;97345.97;4996027;28;20095;-77
2021/04/26 03:36:43;;;;;;;3.88;2.00;;;;;;;5.57;47.83;97345.22;5003035;28;20045;-76
2021/04/26 03:39:09;;;;;;;7.30;3.10;;;;;;;5.66;47.85;97349.16;5044723;28;20718;-76
2021/04/26 03:41:38;;;;;;;2.63;1.55;;;;;;;5.63;47.84;97334.84;5028450;28;20038;-76
2021/04/26 03:44:04;;;;;;;5.22;2.22;;;;;;;5.59;48.06;97336.28;5004058;28;20034;-76
2021/04/26 03:46:30;;;;;;;3.17;2.00;;;;;;;5.62;47.92;97335.06;5012147;28;20500;-77
2021/04/26 03:48:55;;;;;;;5.13;2.28;;;;;;;5.59;47.67;97325.94;5012044;28;20030;-76
2021/04/26 03:51:21;;;;;;;5.80;2.00;;;;;;;5.63;47.60;97327.09;5029229;28;20037;-76
2021/04/26 03:53:46;;;;;;;3.42;2.08;;;;;;;5.59;48.00;97330.31;5028674;28;20026;-77
2021/04/26 03:56:11;;;;;;;4.28;2.20;;;;;;;5.49;48.05;97325.59;5029215;28;20075;-77
2021/04/26 03:58:37;;;;;;;5.05;2.40;;;;;;;5.33;48.33;97326.09;5011840;28;20057;-77
2021/04/26 04:01:02;;;;;;;6.10;2.35;;;;;;;5.24;48.86;97328.94;5044912;28;20029;-76
2021/04/26 04:03:27;;;;;;;5.75;2.50;;;;;;;5.11;49.02;97339.31;5008902;28;20033;-76
2021/04/26 04:05:53;;;;;;;2.70;1.95;;;;;;;5.08;48.70;97329.38;5026965;28;20063;-76
2021/04/26 04:08:21;;;;;;;3.13;2.13;;;;;;;5.05;49.44;97329.78;5027167;28;20079;-76
2021/04/26 04:10:46;;;;;;;3.35;1.80;;;;;;;5.04;49.35;97326.41;5014868;28;20026;-77
2021/04/26 04:13:12;;;;;;;4.43;2.00;;;;;;;4.93;49.68;97323.69;5032632;28;20029;-77
2021/04/26 04:15:37;;;;;;;2.78;1.55;;;;;;;4.98;49.69;97329.81;5049233;28;20026;-76
2021/04/26 04:18:02;;;;;;;6.63;2.45;;;;;;;4.97;49.06;97317.91;5016006;28;20365;-75
2021/04/26 04:20:28;;;;;;;5.45;2.22;;;;;;;4.95;49.91;97322.50;5015749;28;20037;-77
2021/04/26 04:22:53;;;;;;;5.47;2.53;;;;;;;4.92;49.90;97319.50;5016241;28;20040;-76
2021/04/26 04:25:19;;;;;;;4.18;1.88;;;;;;;4.90;49.68;97330.06;5031995;28;20029;-77
2021/04/26 04:27:45;;;;;;;6.28;2.40;;;;;;;4.90;49.67;97327.47;5015757;28;20040;-77
2021/04/26 04:30:13;;;;;;;6.43;2.53;;;;;;;4.78;49.84;97329.91;4999155;28;20427;-77
2021/04/26 04:32:38;;;;;;;3.85;2.30;;;;;;;4.74;50.08;97336.44;5033744;28;20091;-77
2021/04/26 04:35:04;;;;;;;4.75;2.42;;;;;;;4.56;51.04;97337.09;5032175;28;20475;-76
2021/04/26 04:37:29;;;;;;;4.15;2.22;;;;;;;4.45;51.09;97342.84;5032207;28;20039;-77
2021/04/26 04:39:55;;;;;;;3.80;1.98;;;;;;;4.25;51.51;97335.13;5031592;28;20037;-77
2021/04/26 04:42:20;;;;;;;7.25;2.58;;;;;;;4.37;51.26;97343.03;5030937;28;20084;-76
2021/04/26 04:44:46;;;;;;;8.15;2.30;;;;;;;4.43;51.22;97339.69;5032413;28;20034;-77
2021/04/26 04:47:11;;;;;;;4.13;2.10;;;;;;;4.35;51.32;97339.88;5048530;28;20030;-77
2021/04/26 04:49:36;;;;;;;6.45;2.88;;;;;;;4.30;51.66;97328.41;5048167;28;20692;-77
2021/04/26 04:52:03;;;;;;;3.17;2.13;;;;;;;4.24;52.15;97330.97;5015699;28;20040;-76
2021/04/26 04:54:28;;;;;;;5.88;2.47;;;;;;;4.24;51.21;97339.50;5015149;28;20040;-77
2021/04/26 04:56:54;;;;;;;5.30;2.47;;;;;;;4.22;52.01;97331.16;5049275;28;20041;-77
2021/04/26 04:59:19;;;;;;;7.00;2.35;;;;;;;4.23;51.47;97331.97;5014612;28;20087;-76
2021/04/26 05:01:46;;;;;;;6.38;3.28;;;;;;;4.43;51.40;97331.94;5014987;28;20079;-77
2021/04/26 05:04:11;;;;;;;7.18;4.25;;;;;;;4.40;51.59;97342.66;4997998;28;20419;-76
2021/04/26 05:06:37;;;;;;;5.50;3.03;;;;;;;4.50;51.70;97337.88;5030914;28;20120;-77
2021/04/26 05:09:06;;;;;;;4.60;3.28;;;;;;;4.60;50.67;97333.09;5013553;28;20018;-76
2021/04/26 05:11:31;;;;;;;5.57;2.92;;;;;;;4.74;50.80;97335.66;5014142;28;20028;-76
2021/04/26 05:13:58;;;;;;;4.47;2.40;;;;;;;4.65;51.10;97329.91;5014819;28;20448;-77
2021/04/26 05:16:28;;;;;;;4.45;2.42;;;;;;;4.55;50.98;97332.13;5030814;28;20033;-77
2021/04/26 05:18:56;;;;;;;6.93;2.78;;;;;;;4.80;50.54;97330.47;5030451;28;20033;-76
2021/04/26 05:21:22;;;;;;;5.85;3.70;;;;;;;4.89;50.21;97341.38;5046298;28;20030;-77
2021/04/26 05:23:47;;;;;;;4.32;3.45;;;;;;;4.79;50.61;97333.25;5014165;28;20026;-77
2021/04/26 05:26:12;;;;;;;6.97;3.83;;;;;;;4.93;49.87;97344.31;5030829;28;20025;-77
2021/04/26 05:28:38;;;;;;;4.60;2.45;;;;;;;4.96;49.92;97344.72;5031356;28;20103;-76
2021/04/26 05:31:04;;;;;;;4.00;1.98;;;;;;;4.97;49.59;97343.72;5032119;28;20025;-76
2021/04/26 05:33:29;;;;;;;4.90;2.03;;;;;;;4.86;50.47;97352.09;5016162;28;20037;-77
2021/04/26 05:35:55;;;;;;;4.85;2.33;;;;;;;5.14;49.50;97348.41;5030993;28;20041;-76
2021/04/26 05:38:20;;;;;;;3.83;1.80;;;;;;;5.24;49.59;97356.50;5030969;28;20051;-76
2021/04/26 05:40:49;;;;;;;5.40;2.42;;;;;;;5.28;48.92;97347.38;5030581;28;20029;-77
2021/04/26 05:43:16;;;;;;;4.00;1.73;;;;;;;5.49;48.76;97350.66;5014374;28;20029;-77
2021/04/26 05:45:43;;;;;;;4.78;2.28;;;;;;;5.57;48.55;97350.38;5030854;28;20546;-77
2021/04/26 05:48:09;;;;;;;4.75;2.08;;;;;;;5.67;48.24;97353.31;5031047;28;20453;-76
2021/04/26 05:50:35;;;;;;;4.18;1.70;;;;;;;5.82;47.92;97355.59;5013808;28;20056;-77
2021/04/26 05:53:01;;;;;;;4.57;2.00;;;;;;;6.00;46.82;97357.50;5012949;28;20474;-76
2021/04/26 05:55:26;;;;;;;5.60;1.90;;;;;;;6.19;47.30;97356.56;5007559;28;20058;-77
2021/04/26 05:57:52;;;;;;;5.78;2.15;;;;;;;6.37;46.87;97355.81;5014376;28;20021;-77
2021/04/26 06:00:18;;;;;;;5.45;1.88;;;;;;;6.75;45.87;97352.28;5030398;28;20071;-77
2021/04/26 06:02:44;;;;;;;4.07;1.92;;;;;;;6.54;45.65;97350.09;5030590;28;20030;-76
2021/04/26 06:05:10;;;;;;;3.95;1.98;;;;;;;6.55;45.74;97351.69;5034643;28;20484;-77
2021/04/26 06:07:36;;;;;;;8.60;3.92;;;;;;;6.62;45.52;97352.41;5028606;28;20079;-77
2021/04/26 06:10:03;;;;;;;16.95;7.60;;;;;;;7.02;44.66;97351.19;5008948;28;20034;-76
2021/04/26 06:12:32;;;;;;;6.47;2.60;;;;;;;7.21;44.58;97344.97;5012374;28;20079;-76
2021/04/26 06:14:59;;;;;;;9.88;4.50;;;;;;;7.35;43.41;97347.41;5028906;28;20037;-76
2021/04/26 06:17:25;;;;;;;6.05;2.35;;;;;;;7.85;42.77;97347.13;5045219;28;20033;-77
2021/04/26 06:19:51;;;;;;;11.25;4.78;;;;;;;7.85;42.33;97347.13;5011618;28;20029;-77
2021/04/26 06:22:16;;;;;;;13.60;6.65;;;;;;;7.89;42.94;97332.72;5008997;28;20466;-77
2021/04/26 06:24:42;;;;;;;49.63;21.05;;;;;;;8.20;42.00;97334.22;5026785;28;20366;-77
2021/04/26 06:27:08;;;;;;;19.33;9.48;;;;;;;8.07;41.86;97334.41;5045093;28;20033;-77
2021/04/26 06:29:35;;;;;;;3.67;1.55;;;;;;;8.28;42.21;97335.69;5028046;28;20040;-77
2021/04/26 06:32:00;;;;;;;2.78;1.98;;;;;;;8.84;40.83;97322.34;5029613;28;20116;-77
2021/04/26 06:34:26;;;;;;;4.53;2.05;;;;;;;8.67;40.61;97330.88;5011860;28;20141;-77
2021/04/26 06:36:52;;;;;;;5.07;2.85;;;;;;;8.53;40.80;97326.91;5044911;28;20544;-77
2021/04/26 06:39:17;;;;;;;4.05;1.98;;;;;;;8.90;40.38;97329.25;5011318;28;20029;-77
2021/04/26 06:41:43;;;;;;;3.08;1.63;;;;;;;8.84;40.21;97333.53;4992184;28;20033;-77
2021/04/26 06:44:09;;;;;;;5.43;2.10;;;;;;;9.17;39.65;97326.91;5043275;28;20029;-76
2021/04/26 06:46:34;;;;;;;4.70;2.72;;;;;;;9.60;39.07;97325.59;5027649;28;20037;-77
2021/04/26 06:49:00;;;;;;;2.33;1.55;;;;;;;9.68;38.96;97330.41;5004017;28;20018;-77
2021/04/26 06:51:26;;;;;;;4.32;1.88;;;;;;;10.06;38.83;97321.13;4994282;28;20030;-77
2021/04/26 06:53:51;;;;;;;3.40;2.22;;;;;;;9.97;38.59;97319.16;5028192;28;20492;-77
2021/04/26 06:56:16;;;;;;;5.97;2.70;;;;;;;10.23;38.34;97318.53;5009999;28;20242;-77
2021/04/26 06:58:42;;;;;;;2.80;1.77;;;;;;;10.00;38.06;97314.28;5009318;28;20029;-77
2021/04/26 07:01:07;;;;;;;4.95;2.97;;;;;;;9.79;38.35;97320.19;5043719;28;20153;-77
2021/04/26 07:03:33;;;;;;;3.28;1.88;;;;;;;10.34;37.93;97316.09;5027304;28;20483;-77
2021/04/26 07:05:58;;;;;;;4.15;2.53;;;;;;;11.09;37.02;97306.09;5040729;28;20025;-77
2021/04/26 07:08:23;;;;;;;5.63;2.63;;;;;;;10.63;37.18;97301.91;5022756;28;20393;-76
2021/04/26 07:10:49;;;;;;;8.27;4.97;;;;;;;10.55;37.00;97304.16;5026327;28;20021;-77
2021/04/26 07:13:15;;;;;;;5.60;2.60;;;;;;;10.89;37.02;97311.88;5025030;28;20449;-77
2021/04/26 07:15:41;;;;;;;3.28;2.13;;;;;;;11.05;36.07;97301.38;5024981;28;20538;-77
2021/04/26 07:18:06;;;;;;;7.50;3.75;;;;;;;10.71;36.49;97310.34;5025740;28;20038;-77
2021/04/26 07:20:32;;;;;;;5.97;3.53;;;;;;;11.14;36.10;97306.94;5026605;28;20038;-76
2021/04/26 07:22:57;;;;;;;4.63;3.25;;;;;;;11.29;35.75;97297.69;5010107;28;20459;-78
2021/04/26 07:25:23;;;;;;;4.55;3.05;;;;;;;11.56;35.80;97302.91;5010260;28;20353;-77
2021/04/26 07:27:48;;;;;;;3.30;2.53;;;;;;;11.69;35.42;97299.91;5008432;28;20479;-77
2021/04/26 07:30:15;;;;;;;6.30;1.92;;;;;;;12.00;34.76;97302.78;5043470;28;20048;-77
2021/04/26 07:32:41;;;;;;;6.30;2.15;;;;;;;11.85;34.37;97294.81;5012467;28;20063;-77
2021/04/26 07:35:11;;;;;;;3.85;2.33;;;;;;;12.09;34.60;97296.06;5044209;28;20026;-77
2021/04/26 07:37:38;;;;;;;3.03;2.00;;;;;;;12.28;34.10;97306.09;5011820;28;20492;-77
2021/04/26 07:40:05;;;;;;;2.30;1.63;;;;;;;12.28;33.57;97303.50;5042954;28;20042;-77
2021/04/26 07:42:30;;;;;;;4.28;1.90;;;;;;;12.45;33.55;97293.66;5043718;28;20065;-77
2021/04/26 07:44:56;;;;;;;4.97;2.03;;;;;;;12.49;33.02;97288.72;5040379;28;20057;-77
2021/04/26 07:47:21;;;;;;;3.83;2.05;;;;;;;12.30;33.82;97297.00;5028366;28;20030;-77
2021/04/26 07:49:46;;;;;;;3.70;2.05;;;;;;;12.60;33.40;97294.81;4994024;28;20021;-77
2021/04/26 07:52:13;;;;;;;4.03;1.75;;;;;;;13.40;32.38;97287.50;5010934;28;20029;-77
2021/04/26 07:54:39;;;;;;;2.92;2.13;;;;;;;14.21;31.43;97285.16;5028330;28;20117;-77
2021/04/26 07:57:06;;;;;;;3.78;1.70;;;;;;;13.97;31.27;97288.31;5010382;28;20499;-77
2021/04/26 07:59:31;;;;;;;3.47;2.22;;;;;;;13.61;31.73;97292.78;5027052;28;20087;-76
2021/04/26 08:01:57;;;;;;;4.63;1.92;;;;;;;13.79;31.26;97292.22;5033377;28;20032;-77
2021/04/26 08:04:22;;;;;;;3.80;2.03;;;;;;;12.79;32.06;97288.09;5044400;28;20040;-76
2021/04/26 08:06:48;;;;;;;3.22;1.65;;;;;;;13.70;31.43;97287.81;5027145;28;20155;-77
2021/04/26 08:09:13;;;;;;;4.25;2.30;;;;;;;13.20;31.90;97277.75;5026903;28;20033;-77
2021/04/26 08:11:39;;;;;;;4.05;2.10;;;;;;;13.79;31.34;97273.13;5028615;28;20040;-76
2021/04/26 08:14:04;;;;;;;3.95;1.90;;;;;;;14.08;30.43;97286.47;5028845;28;20117;-77
2021/04/26 08:16:29;;;;;;;3.05;1.90;;;;;;;13.10;31.78;97275.13;5029319;28;20029;-78
2021/04/26 08:18:55;;;;;;;3.63;2.30;;;;;;;13.67;32.23;97276.81;5028211;28;20029;-77
2021/04/26 08:21:21;;;;;;;7.93;2.47;;;;;;;13.96;31.44;97278.09;5028745;28;20034;-77
2021/04/26 08:23:46;;;;;;;4.30;2.05;;;;;;;14.89;30.32;97284.72;5028513;28;20056;-77
2021/04/26 08:26:12;;;;;;;4.82;2.10;;;;;;;14.23;30.48;97277.81;5028900;28;20041;-77
2021/04/26 08:28:37;;;;;;;3.72;2.03;;;;;;;14.54;30.49;97283.75;5028840;28;20033;-76
2021/04/26 08:31:06;;;;;;;3.83;1.90;;;;;;;14.91;29.70;97284.44;5013056;28;20029;-76
2021/04/26 08:33:32;;;;;;;3.63;2.42;;;;;;;14.93;29.66;97285.72;5029018;28;20037;-76
2021/04/26 08:35:57;;;;;;;2.78;2.20;;;;;;;15.07;29.83;97285.94;5028521;28;20107;-77
2021/04/26 08:38:23;;;;;;;3.25;2.10;;;;;;;14.81;29.80;97290.50;5030225;28;20888;-77
2021/04/26 08:40:48;;;;;;;3.13;2.63;;;;;;;14.65;29.75;97274.06;5045215;28;20034;-77
2021/04/26 08:43:13;;;;;;;5.00;2.05;;;;;;;15.55;29.85;97278.28;5027291;28;20044;-76
2021/04/26 08:45:39;;;;;;;4.85;2.40;;;;;;;15.43;29.41;97284.94;5031293;28;20026;-77
2021/04/26 08:48:08;;;;;;;3.30;2.45;;;;;;;15.16;29.35;97271.22;5029035;28;20088;-78
2021/04/26 08:50:34;;;;;;;2.65;1.83;;;;;;;15.84;29.05;97282.81;5028378;28;20029;-77
2021/04/26 08:52:59;;;;;;;3.30;1.77;;;;;;;15.30;29.24;97281.06;5012757;28;20029;-76
2021/04/26 08:55:25;;;;;;;3.97;2.38;;;;;;;15.50;29.03;97280.16;5012836;28;20037;-77
2021/04/26 08:57:53;;;;;;;3.20;2.22;;;;;;;15.07;29.91;97279.91;5031611;28;20034;-77
2021/04/26 09:00:20;;;;;;;4.45;2.33;;;;;;;15.36;29.71;97280.00;5048353;28;20373;-77
2021/04/26 09:02:51;;;;;;;3.28;2.08;;;;;;;15.60;29.01;97274.84;5048884;28;20034;-77
2021/04/26 09:05:27;;;;;;;3.67;2.40;;;;;;;14.96;29.44;97268.69;5048659;28;20060;-76
2021/04/26 09:07:55;;;;;;;4.97;2.60;;;;;;;16.21;28.69;97270.94;5032010;28;20813;-77
2021/04/26 09:10:41;;;;;;;3.22;2.00;;;;;;;16.43;27.85;97259.13;5031386;28;20040;-77
2021/04/26 09:13:27;;;;;;;7.47;3.00;;;;;;;15.67;28.35;97274.53;5015673;28;20041;-78
2021/04/26 09:16:06;;;;;;;6.20;2.70;;;;;;;16.90;27.73;97262.81;5031701;28;20075;-77
2021/04/26 09:18:51;;;;;;;4.82;2.38;;;;;;;17.73;27.14;97255.28;5031606;28;20065;-77
2021/04/26 09:21:30;;;;;;;4.68;3.00;;;;;;;17.47;25.83;97256.78;5033215;28;20029;-77
2021/04/26 09:24:25;;;;;;;3.22;2.28;;;;;;;17.65;26.05;97258.59;5031873;28;20037;-77
2021/04/26 09:26:53;;;;;;;5.07;2.15;;;;;;;18.19;26.50;97252.97;5031376;28;20025;-77
2021/04/26 09:29:26;;;;;;;3.63;2.00;;;;;;;17.63;26.11;97255.44;5031282;28;20607;-77
2021/04/26 09:32:13;;;;;;;4.82;2.20;;;;;;;16.50;27.19;97251.69;5048291;28;20030;-77
2021/04/26 09:34:40;;;;;;;7.47;2.30;;;;;;;16.96;26.78;97261.69;5014493;28;20091;-76
2021/04/26 09:37:09;;;;;;;3.80;2.85;;;;;;;16.66;27.84;97252.31;5031031;28;20047;-77
2021/04/26 09:39:54;;;;;;;2.90;2.10;;;;;;;16.78;26.97;97246.66;5030918;28;20273;-77
2021/04/26 09:42:41;;;;;;;3.90;2.60;;;;;;;17.09;26.50;97241.00;5031887;28;20069;-77
2021/04/26 09:45:30;;;;;;;3.30;2.25;;;;;;;17.89;25.92;97250.59;5013712;28;20061;-77
2021/04/26 09:48:19;;;;;;;3.08;2.25;;;;;;;18.30;25.93;97249.88;5046789;28;20108;-77
2021/04/26 09:50:55;;;;;;;4.72;2.30;;;;;;;18.53;25.00;97250.75;5030703;28;20659;-77
2021/04/26 09:53:22;;;;;;;5.32;2.33;;;;;;;19.37;25.47;97246.09;5030973;28;20033;-77
2021/04/26 09:55:50;;;;;;;4.25;2.20;;;;;;;18.25;24.29;97238.63;5019319;28;20473;-77
2021/04/26 09:58:15;;;;;;;5.57;2.63;;;;;;;18.27;26.17;97233.88;5030928;28;20611;-77
2021/04/26 10:00:43;;;;;;;3.85;2.40;;;;;;;18.12;24.67;97235.69;5014013;28;20033;-77
2021/04/26 10:03:09;;;;;;;3.95;2.45;;;;;;;18.15;24.96;97234.34;5030723;28;20489;-77
2021/04/26 10:05:35;;;;;;;4.07;2.55;;;;;;;18.67;24.79;97218.31;5013909;28;20344;-77
2021/04/26 10:08:00;;;;;;;5.07;2.47;;;;;;;18.56;24.73;97219.56;5029724;28;20055;-76
2021/04/26 10:10:26;;;;;;;2.67;1.90;;;;;;;18.81;24.06;97224.31;5013672;28;20110;-76
2021/04/26 10:12:51;;;;;;;3.92;2.28;;;;;;;19.56;23.12;97216.84;5030122;28;20040;-76
2021/04/26 10:15:24;;;;;;;3.50;2.00;;;;;;;18.65;24.77;97215.97;5030293;28;20025;-76
2021/04/26 10:17:50;;;;;;;2.67;2.45;;;;;;;18.53;24.24;97208.53;5013910;28;20029;-77
2021/04/26 10:20:15;;;;;;;4.25;2.58;;;;;;;18.75;24.20;97206.25;5030325;28;20888;-77
2021/04/26 10:22:43;;;;;;;5.15;2.20;;;;;;;19.33;24.94;97197.63;5030278;28;20025;-77
2021/04/26 10:25:10;;;;;;;5.07;2.40;;;;;;;19.55;23.08;97188.91;5014649;28;20018;-77
2021/04/26 10:27:41;;;;;;;3.15;2.28;;;;;;;17.87;24.68;97192.16;5013702;28;20116;-77
2021/04/26 10:30:15;;;;;;;3.65;2.17;;;;;;;18.85;23.62;97198.97;5012854;28;20037;-77
2021/04/26 10:32:58;;;;;;;4.55;2.10;;;;;;;19.50;23.06;97191.66;5046715;28;20034;-76
2021/04/26 10:35:25;;;;;;;4.68;1.88;;;;;;;19.26;22.75;97182.19;5029921;28;20048;-77
2021/04/26 10:37:51;;;;;;;3.72;2.28;;;;;;;19.36;22.73;97185.66;5029637;28;20037;-77
2021/04/26 10:40:19;;;;;;;5.22;2.53;;;;;;;19.27;22.85;97194.31;5013171;28;20091;-78
2021/04/26 10:42:50;;;;;;;4.80;2.30;;;;;;;19.91;22.65;97184.59;5010015;28;20033;-77
2021/04/26 10:45:20;;;;;;;2.92;2.30;;;;;;;18.97;23.30;97184.44;5011093;28;20029;-77
2021/04/26 10:47:54;;;;;;;3.78;1.95;;;;;;;18.21;24.59;97179.69;5030156;28;20057;-76
2021/04/26 10:50:22;;;;;;;4.25;2.17;;;;;;;19.07;23.88;97171.81;5026464;28;20056;-76
2021/04/26 10:52:55;;;;;;;3.58;2.10;;;;;;;19.60;22.68;97170.28;5014074;28;20042;-77
2021/04/26 10:55:24;;;;;;;3.85;2.13;;;;;;;19.28;22.70;97164.19;5010282;28;20033;-77
2021/04/26 10:57:51;;;;;;;3.45;2.25;;;;;;;19.80;22.99;97163.72;5012535;28;20038;-77
2021/04/26 11:00:23;;;;;;;4.70;2.10;;;;;;;19.85;22.20;97154.88;5023326;28;20029;-77
2021/04/26 11:02:52;;;;;;;4.47;2.10;;;;;;;20.38;21.66;97150.53;5029025;28;20026;-77
2021/04/26 11:05:31;;;;;;;4.85;2.05;;;;;;;19.41;21.89;97151.22;5029194;28;20029;-77
2021/04/26 11:08:01;;;;;;;3.65;2.33;;;;;;;20.32;22.79;97157.03;5029438;28;20445;-77
2021/04/26 11:10:27;;;;;;;5.05;2.33;;;;;;;20.05;22.26;97158.06;5028586;28;20037;-77
2021/04/26 11:12:58;;;;;;;3.85;2.13;;;;;;;20.02;22.47;97143.59;5028922;28;20100;-76
2021/04/26 11:15:25;;;;;;;3.00;1.85;;;;;;;20.51;21.32;97146.19;5012843;28;20033;-76
2021/04/26 11:17:51;;;;;;;3.38;2.08;;;;;;;20.25;21.16;97128.41;5028946;28;20396;-76
2021/04/26 11:20:23;;;;;;;4.70;2.03;;;;;;;20.18;20.33;97113.00;5044586;28;20029;-77
2021/04/26 11:22:53;;;;;;;4.20;2.08;;;;;;;19.79;20.71;97119.91;5045493;28;20399;-77
2021/04/26 11:25:39;;;;;;;2.83;1.90;;;;;;;19.76;20.76;97109.94;5028733;28;20026;-77
2021/04/26 11:28:05;;;;;;;2.88;1.95;;;;;;;19.63;20.94;97111.56;5012571;28;20025;-77
2021/04/26 11:30:33;;;;;;;4.00;1.70;;;;;;;20.40;22.52;97116.63;5013316;28;20121;-77
2021/04/26 11:33:03;;;;;;;2.55;1.80;;;;;;;19.53;21.48;97117.09;5006594;28;20060;-76
2021/04/26 11:35:29;;;;;;;2.97;1.98;;;;;;;19.13;21.88;97114.41;5039055;28;20064;-77
2021/04/26 11:37:56;;;;;;;4.20;2.05;;;;;;;18.72;21.93;97113.47;5028850;28;20052;-76
2021/04/26 11:40:28;;;;;;;3.08;2.35;;;;;;;18.03;22.83;97103.09;5012217;28;20139;-77
2021/04/26 11:43:06;;;;;;;4.90;2.42;;;;;;;18.34;22.87;97102.44;5028497;28;20139;-76